Aérodrome :
LOGIN :

S'inscrire | Disclaimer

   EN    FR    IT 

 










Légende :    VFR   VFR Marginal   IFR   IFR Intensif   IFR Très Intensif
Visi : 
Plafond : 
>= 8 km
>= 3000ft
5 à 8 km
1000 à 3000 ft
1500m à 5 km
500 à 1000 ft
800 à 1500m
200 à 500 ft
< 800m
< 200 ft
Symboles :   Orages  Brouillard  Fortes neiges  Fortes précipitations  Vent > 20 kt
SIGMETs :   Divers  Orages  Givrage  Turbulence  Onde Orograph.  Cendres Volcan.







- Altitude de l'aérodrome : 302 ft
- Code IATA : CGN


EDDK - Cologne Bonn

DERNIER METAR :
  • 100320Z 28013KT 9999 VCSH FEW012 SCT020 BKN045 05/02 Q1018 NOSIG

METARs EXPIRÉS :
  • 100250Z 28015KT 9999 FEW015 SCT020 05/02 Q1018 NOSIG
  • 100220Z 28014KT 9999 FEW016 SCT021 05/02 Q1018 NOSIG
  • 100150Z 29013KT 9999 FEW018 BKN022 06/03 Q1017 NOSIG
  • 100120Z 29016KT 9999 FEW018 SCT022 06/03 Q1017 NOSIG
  • 100050Z 29013KT 260V320 9999 VCSH FEW015 BKN020 06/03 Q1016 NOSIG

TAF TAF EDDK
Valide du 10 à 00h jusqu'au 11 à 06h UTC


092300Z 1000/1106 29012KT 9999 BKN030
TEMPO 1011/1015 29015G25KT SHRA BKN015TCU
Pas de NOTAMs connus pour ce terrain.



MET'MAP, la Météo Aéronautique d'un coup d'oeil ! - Copyright ORBIFLY Décembre 2007 - Disclaimer

ORBIFLY MET'MAP TEAM :

Programmation & Développement : Alexandra Zaïnal
Conception & Développement : Baudouin d'Aumeries
Co-Programmation & Développement : Marc-Olivier Méhu
Soutien technique & logistique : Manuel Goepfert

Contact : metmap@orbifly.com




SOURCES & CREDITS :

   NOAA